Time;durP1;ratioP1;P1;durP2;ratioP2;P2;SDS_P1;SDS_P2;PMS_P1;PMS_P2;Temp;Humidity;BMP_temperature;BMP_pressure;BME280_temperature;BME280_humidity;BME280_pressure;Samples;Min_cycle;Max_cycle;Signal;HPM_P1;HPM_P2
2021/01/21 00:00:17;;;;;;;133.23;66.00;;;4.10;99.90;;;;;;5056569;28;20017;-80
2021/01/21 00:02:42;;;;;;;140.00;68.50;;;4.10;99.90;;;;;;5056748;28;20048;-80
2021/01/21 00:05:08;;;;;;;149.47;70.30;;;4.10;99.90;;;;;;5056941;28;20064;-80
2021/01/21 00:07:34;;;;;;;148.60;71.67;;;4.10;99.90;;;;;;5056679;28;20029;-80
2021/01/21 00:10:00;;;;;;;141.10;67.87;;;4.10;99.90;;;;;;5056653;28;20389;-81
2021/01/21 00:12:26;;;;;;;123.65;61.25;;;4.10;99.90;;;;;;5056538;28;20052;-78
2021/01/21 00:14:51;;;;;;;124.43;61.27;;;4.10;99.90;;;;;;5056313;28;20055;-79
2021/01/21 00:17:17;;;;;;;130.55;62.67;;;4.10;99.90;;;;;;5051826;28;20447;-78
2021/01/21 00:19:43;;;;;;;132.73;63.13;;;4.10;99.90;;;;;;5037127;28;20501;-79
2021/01/21 00:22:08;;;;;;;127.27;62.23;;;4.10;99.90;;;;;;5035651;28;20070;-79
2021/01/21 00:24:34;;;;;;;123.33;62.70;;;4.10;99.90;;;;;;5052968;28;20115;-79
2021/01/21 00:26:59;;;;;;;124.83;62.53;;;4.10;99.90;;;;;;5036021;28;20029;-79
2021/01/21 00:29:25;;;;;;;126.63;60.22;;;4.10;99.90;;;;;;5068123;28;20024;-79
2021/01/21 00:31:52;;;;;;;120.13;58.10;;;4.10;99.90;;;;;;5056323;28;20099;-79
2021/01/21 00:34:18;;;;;;;111.80;56.23;;;4.00;99.90;;;;;;5056262;28;20078;-79
2021/01/21 00:36:43;;;;;;;122.43;58.93;;;4.00;99.90;;;;;;5045460;28;20053;-79
2021/01/21 00:39:09;;;;;;;122.43;60.77;;;4.00;99.90;;;;;;5054235;28;20086;-78
2021/01/21 00:41:35;;;;;;;125.73;59.50;;;4.00;99.90;;;;;;5036245;28;20025;-78
2021/01/21 00:44:00;;;;;;;125.25;58.35;;;4.00;99.90;;;;;;5036279;28;20483;-79
2021/01/21 00:46:26;;;;;;;123.18;58.78;;;4.00;99.90;;;;;;5044310;28;20058;-79
2021/01/21 00:48:52;;;;;;;115.83;58.93;;;4.00;99.90;;;;;;5056140;28;20115;-79
2021/01/21 00:51:19;;;;;;;120.28;57.70;;;4.00;99.90;;;;;;5056003;28;20082;-79
2021/01/21 00:53:46;;;;;;;116.00;56.97;;;4.00;99.90;;;;;;5055974;28;20032;-79
2021/01/21 00:56:12;;;;;;;119.33;58.93;;;4.00;99.90;;;;;;5049597;28;20068;-78
2021/01/21 00:58:37;;;;;;;121.57;58.47;;;4.00;99.90;;;;;;5053915;28;20024;-78
2021/01/21 01:01:03;;;;;;;119.00;57.57;;;4.00;99.90;;;;;;5035924;28;20021;-78
2021/01/21 01:03:29;;;;;;;113.83;56.00;;;3.90;99.90;;;;;;5035870;28;20115;-79
2021/01/21 01:05:54;;;;;;;126.30;59.47;;;3.90;99.90;;;;;;5054747;28;20025;-79
2021/01/21 01:08:20;;;;;;;132.97;60.37;;;3.90;99.90;;;;;;5035825;28;20025;-78
2021/01/21 01:10:46;;;;;;;130.98;62.63;;;3.90;99.90;;;;;;5053640;28;20021;-78
2021/01/21 01:13:11;;;;;;;131.93;62.53;;;3.90;99.90;;;;;;5034981;28;20064;-78
2021/01/21 01:15:37;;;;;;;128.90;60.60;;;3.90;99.90;;;;;;5065261;28;20028;-78
2021/01/21 01:18:03;;;;;;;124.87;59.63;;;4.00;99.90;;;;;;5057672;28;20025;-78
2021/01/21 01:20:28;;;;;;;116.37;58.53;;;4.00;99.90;;;;;;5073205;28;20103;-78
2021/01/21 01:22:55;;;;;;;127.70;60.90;;;3.90;99.90;;;;;;5055389;28;20078;-79
2021/01/21 01:25:22;;;;;;;138.57;61.13;;;3.90;99.90;;;;;;5073157;28;20031;-78
2021/01/21 01:27:48;;;;;;;133.63;61.47;;;3.90;99.90;;;;;;5055444;28;20439;-78
2021/01/21 01:30:15;;;;;;;126.93;60.33;;;3.90;99.90;;;;;;5073266;28;20099;-78
2021/01/21 01:32:41;;;;;;;128.53;60.73;;;3.90;99.90;;;;;;5048649;28;20509;-78
2021/01/21 01:35:07;;;;;;;124.23;57.90;;;3.90;99.90;;;;;;5035187;28;20497;-79
2021/01/21 01:37:33;;;;;;;130.03;59.97;;;3.90;99.90;;;;;;5053034;28;20123;-78
2021/01/21 01:39:59;;;;;;;123.10;59.33;;;3.90;99.90;;;;;;5035017;28;20109;-78
2021/01/21 01:42:25;;;;;;;133.93;61.42;;;3.90;99.90;;;;;;5035016;28;20032;-78
2021/01/21 01:44:51;;;;;;;120.55;56.63;;;3.90;99.90;;;;;;5035139;28;20537;-78
2021/01/21 01:47:17;;;;;;;129.53;59.87;;;4.00;99.90;;;;;;5052851;28;20048;-78
2021/01/21 01:49:45;;;;;;;124.20;58.95;;;4.00;99.90;;;;;;5035158;28;20364;-78
2021/01/21 01:52:11;;;;;;;121.53;56.73;;;4.00;99.90;;;;;;5035029;28;20047;-78
2021/01/21 01:54:39;;;;;;;124.15;58.45;;;4.00;99.90;;;;;;5034932;28;20405;-78
2021/01/21 01:57:05;;;;;;;122.35;57.20;;;3.90;99.90;;;;;;5034942;28;20028;-78
2021/01/21 01:59:32;;;;;;;120.23;57.80;;;3.90;99.90;;;;;;5052943;28;20063;-78
2021/01/21 02:01:59;;;;;;;112.43;56.43;;;4.00;99.90;;;;;;5034847;28;20028;-79
2021/01/21 02:04:25;;;;;;;113.97;55.50;;;4.00;99.90;;;;;;5052846;28;20024;-78
2021/01/21 02:06:51;;;;;;;114.93;57.75;;;4.00;99.90;;;;;;5052544;28;20024;-79
2021/01/21 02:09:17;;;;;;;116.97;56.47;;;4.00;99.90;;;;;;5034766;28;20032;-79
2021/01/21 02:11:53;;;;;;;114.78;54.80;;;4.00;99.90;;;;;;5052639;28;20029;-79
2021/01/21 02:14:44;;;;;;;119.27;56.57;;;4.00;99.90;;;;;;5034921;28;20021;-79
2021/01/21 02:17:20;;;;;;;112.87;54.33;;;4.00;99.90;;;;;;5036656;28;20025;-79
2021/01/21 02:20:34;;;;;;;124.30;57.90;;;4.00;99.90;;;;;;5054769;28;20059;-79
2021/01/21 02:23:37;;;;;;;117.82;55.80;;;4.00;99.90;;;;;;5054994;28;20085;-79
2021/01/21 02:26:13;;;;;;;124.53;55.83;;;4.00;99.90;;;;;;5040795;28;20057;-79
2021/01/21 02:29:02;;;;;;;119.67;55.43;;;4.00;99.90;;;;;;5038926;28;20029;-79
2021/01/21 02:31:55;;;;;;;121.25;55.88;;;4.00;99.90;;;;;;5038838;28;20032;-78
2021/01/21 02:34:33;;;;;;;124.40;58.33;;;4.00;99.90;;;;;;5049165;28;20150;-79
2021/01/21 02:37:01;;;;;;;123.30;58.53;;;4.00;99.90;;;;;;5075737;28;20037;-79
2021/01/21 02:39:29;;;;;;;125.95;58.90;;;3.90;99.90;;;;;;5058610;28;20028;-79
2021/01/21 02:41:54;;;;;;;127.60;55.88;;;3.90;99.90;;;;;;5076360;28;20070;-79
2021/01/21 02:44:20;;;;;;;134.80;58.95;;;4.00;99.90;;;;;;5067367;28;20111;-79
2021/01/21 02:46:48;;;;;;;120.77;56.77;;;3.90;99.90;;;;;;5070897;28;20118;-79
2021/01/21 02:49:15;;;;;;;120.47;56.40;;;4.00;99.90;;;;;;5038514;28;20047;-78
2021/01/21 02:51:46;;;;;;;122.77;57.33;;;4.00;99.90;;;;;;5038315;28;20075;-78
2021/01/21 02:54:40;;;;;;;123.25;58.17;;;4.00;99.90;;;;;;5038308;28;20052;-78
2021/01/21 02:57:12;;;;;;;116.17;55.60;;;4.00;99.90;;;;;;5038174;28;20025;-79
2021/01/21 02:59:42;;;;;;;120.75;56.15;;;3.90;99.90;;;;;;5056204;28;20045;-79
2021/01/21 03:02:09;;;;;;;116.40;54.53;;;3.90;99.90;;;;;;5038116;28;20025;-79
2021/01/21 03:04:39;;;;;;;124.77;57.63;;;3.90;99.90;;;;;;5052947;28;20486;-79
2021/01/21 03:07:08;;;;;;;123.17;58.27;;;3.80;99.90;;;;;;5071145;28;20116;-79
2021/01/21 03:09:35;;;;;;;132.80;60.13;;;3.70;99.90;;;;;;5037964;28;20029;-78
2021/01/21 03:12:20;;;;;;;126.40;59.73;;;3.70;99.90;;;;;;5037994;28;20059;-78
2021/01/21 03:14:47;;;;;;;117.43;58.80;;;3.80;99.90;;;;;;5037899;28;20049;-79
2021/01/21 03:17:13;;;;;;;127.90;58.73;;;3.80;99.90;;;;;;5038990;28;20029;-78
2021/01/21 03:19:39;;;;;;;129.07;61.77;;;3.80;99.90;;;;;;5068242;28;20023;-79
2021/01/21 03:22:04;;;;;;;127.53;61.07;;;3.80;99.90;;;;;;5075646;28;20025;-79
2021/01/21 03:24:30;;;;;;;125.53;60.67;;;3.80;99.90;;;;;;5059768;28;20033;-78
2021/01/21 03:26:56;;;;;;;130.00;59.83;;;3.80;99.90;;;;;;5054258;28;20086;-79
2021/01/21 03:29:21;;;;;;;134.57;60.97;;;3.70;99.90;;;;;;5054298;28;20521;-79
2021/01/21 03:31:47;;;;;;;127.63;61.40;;;3.70;99.90;;;;;;5054187;28;20021;-78
2021/01/21 03:34:13;;;;;;;135.17;64.53;;;3.70;99.90;;;;;;5054185;28;20021;-79
2021/01/21 03:36:38;;;;;;;141.30;66.73;;;3.70;99.90;;;;;;5067314;28;20053;-79
2021/01/21 03:39:04;;;;;;;135.40;63.03;;;3.70;99.90;;;;;;5075510;28;20029;-78
2021/01/21 03:41:30;;;;;;;134.17;62.40;;;3.70;99.90;;;;;;5073804;28;20032;-78
2021/01/21 03:43:56;;;;;;;131.33;63.27;;;3.70;99.90;;;;;;5075213;28;20090;-79
2021/01/21 03:46:21;;;;;;;137.93;63.73;;;3.70;99.90;;;;;;5074081;28;20547;-78
2021/01/21 03:48:47;;;;;;;137.57;64.20;;;3.80;99.90;;;;;;5073947;28;20051;-78
2021/01/21 03:51:13;;;;;;;153.67;69.60;;;3.80;99.90;;;;;;5075053;28;20032;-78
2021/01/21 03:53:38;;;;;;;148.13;68.17;;;3.80;99.90;;;;;;5075242;28;20028;-78
2021/01/21 03:56:04;;;;;;;141.77;65.70;;;3.80;99.90;;;;;;5075063;28;20030;-78
2021/01/21 03:58:30;;;;;;;145.43;64.70;;;3.80;99.90;;;;;;5075019;28;20078;-79
2021/01/21 04:00:55;;;;;;;143.80;64.63;;;3.80;99.90;;;;;;5073572;28;20035;-78
2021/01/21 04:03:21;;;;;;;130.83;62.07;;;3.80;99.90;;;;;;5073547;28;20025;-78
2021/01/21 04:05:47;;;;;;;143.87;65.37;;;3.70;99.90;;;;;;5073615;28;20501;-78
2021/01/21 04:08:12;;;;;;;139.37;63.27;;;3.80;99.90;;;;;;5073565;28;20497;-79
2021/01/21 04:10:38;;;;;;;143.67;64.73;;;3.80;99.90;;;;;;5073579;28;20032;-78
2021/01/21 04:13:04;;;;;;;137.83;66.73;;;3.80;99.90;;;;;;5074739;28;20557;-78
2021/01/21 04:15:29;;;;;;;142.20;63.90;;;3.80;99.90;;;;;;5057155;28;20079;-78
2021/01/21 04:17:55;;;;;;;147.13;64.73;;;3.80;99.90;;;;;;5039734;28;20024;-78
2021/01/21 04:20:21;;;;;;;135.77;64.60;;;3.80;99.90;;;;;;5065700;28;20059;-79
2021/01/21 04:22:46;;;;;;;130.90;62.53;;;3.80;99.90;;;;;;5090135;28;20108;-78
2021/01/21 04:25:12;;;;;;;125.13;61.63;;;3.80;99.90;;;;;;5072612;28;20024;-78
2021/01/21 04:27:38;;;;;;;118.80;58.73;;;3.80;99.90;;;;;;5074544;28;20074;-78
2021/01/21 04:30:05;;;;;;;122.93;59.43;;;3.80;99.90;;;;;;5073050;28;20091;-78
2021/01/21 04:32:30;;;;;;;124.03;60.83;;;3.70;99.90;;;;;;5063748;28;20025;-78
2021/01/21 04:34:56;;;;;;;124.50;60.03;;;3.70;99.90;;;;;;5054196;28;20621;-79
2021/01/21 04:37:21;;;;;;;123.80;61.40;;;3.60;99.90;;;;;;5073750;28;20115;-79
2021/01/21 04:39:47;;;;;;;137.17;62.67;;;3.60;99.90;;;;;;5074176;28;20051;-78
2021/01/21 04:42:13;;;;;;;125.47;60.10;;;3.60;99.90;;;;;;5072891;28;20115;-78
2021/01/21 04:44:38;;;;;;;126.53;58.20;;;3.60;99.90;;;;;;5072737;28;20062;-79
2021/01/21 04:47:08;;;;;;;122.00;58.50;;;3.50;99.90;;;;;;5068350;28;20029;-78
2021/01/21 04:49:36;;;;;;;123.20;58.27;;;3.50;99.90;;;;;;5063120;28;20058;-78
2021/01/21 04:52:04;;;;;;;129.80;59.67;;;3.50;99.90;;;;;;5072008;28;20398;-79
2021/01/21 04:54:38;;;;;;;122.43;58.00;;;3.50;99.90;;;;;;5072357;28;20025;-78
2021/01/21 04:57:06;;;;;;;130.47;59.60;;;3.50;99.90;;;;;;5072277;28;20383;-79
2021/01/21 04:59:36;;;;;;;127.27;59.07;;;3.50;99.90;;;;;;5072267;28;20030;-79
2021/01/21 05:02:06;;;;;;;119.67;59.07;;;3.50;99.90;;;;;;5070370;28;20100;-79
2021/01/21 05:04:33;;;;;;;120.40;59.60;;;3.50;99.90;;;;;;5035701;28;20021;-79
2021/01/21 05:07:00;;;;;;;125.83;60.33;;;3.50;99.90;;;;;;5035864;28;20028;-78
2021/01/21 05:09:28;;;;;;;121.27;59.40;;;3.50;99.90;;;;;;5035722;28;20025;-79
2021/01/21 05:11:55;;;;;;;130.37;60.63;;;3.50;99.90;;;;;;5034830;28;20071;-78
2021/01/21 05:14:21;;;;;;;125.70;58.47;;;3.50;99.90;;;;;;5052550;28;20025;-78
2021/01/21 05:16:47;;;;;;;129.23;57.63;;;3.50;99.90;;;;;;5047419;28;20021;-79
2021/01/21 05:19:18;;;;;;;120.60;56.77;;;3.50;99.90;;;;;;5066781;28;20029;-79
2021/01/21 05:21:44;;;;;;;119.47;56.30;;;3.50;99.90;;;;;;5051343;28;20021;-79
2021/01/21 05:24:13;;;;;;;119.03;55.63;;;3.50;99.90;;;;;;5054933;28;20024;-79
2021/01/21 05:26:39;;;;;;;126.47;59.37;;;3.50;99.90;;;;;;5066214;28;20020;-79
2021/01/21 05:29:06;;;;;;;120.73;57.30;;;3.50;99.90;;;;;;5070993;28;20024;-79
2021/01/21 05:31:33;;;;;;;117.07;58.17;;;3.50;99.90;;;;;;5071345;28;20107;-78
2021/01/21 05:34:01;;;;;;;119.67;55.93;;;3.50;99.90;;;;;;5071857;28;20060;-78
2021/01/21 05:36:27;;;;;;;120.37;58.33;;;3.50;99.90;;;;;;5062602;28;20079;-79
2021/01/21 05:38:57;;;;;;;122.07;59.90;;;3.50;99.90;;;;;;5051847;28;20494;-79
2021/01/21 05:41:26;;;;;;;120.90;57.33;;;3.50;99.90;;;;;;5051697;28;20486;-79
2021/01/21 05:43:52;;;;;;;120.47;58.70;;;3.60;99.90;;;;;;5051641;28;20121;-79
2021/01/21 05:46:18;;;;;;;122.23;55.67;;;3.60;99.90;;;;;;5051780;28;20035;-78
2021/01/21 05:48:45;;;;;;;109.17;54.63;;;3.60;99.90;;;;;;5062846;28;20028;-79
2021/01/21 05:51:12;;;;;;;121.70;56.77;;;3.60;99.90;;;;;;5071636;28;20398;-78
2021/01/21 05:53:39;;;;;;;108.30;51.40;;;3.60;99.90;;;;;;5071615;28;20128;-78
2021/01/21 05:56:09;;;;;;;112.93;53.97;;;3.50;99.90;;;;;;5072715;28;20021;-78
2021/01/21 05:58:37;;;;;;;114.97;55.90;;;3.50;99.90;;;;;;5071202;28;20062;-78
2021/01/21 06:01:05;;;;;;;118.90;57.17;;;3.50;99.90;;;;;;5072883;28;20363;-78
2021/01/21 06:03:32;;;;;;;120.23;55.90;;;3.60;99.90;;;;;;5071807;28;20032;-79
2021/01/21 06:05:59;;;;;;;122.93;57.23;;;3.60;99.90;;;;;;5071504;28;20111;-79
2021/01/21 06:08:29;;;;;;;120.60;55.60;;;3.60;99.90;;;;;;5072888;28;20025;-78
2021/01/21 06:10:56;;;;;;;115.87;54.97;;;3.60;99.90;;;;;;5071509;28;20025;-78
2021/01/21 06:13:21;;;;;;;125.53;58.73;;;3.60;99.90;;;;;;5071521;28;20131;-78
2021/01/21 06:15:49;;;;;;;135.73;61.40;;;3.60;99.90;;;;;;5072751;28;20541;-78
2021/01/21 06:18:15;;;;;;;137.20;62.23;;;3.60;99.90;;;;;;5060191;28;20025;-79
2021/01/21 06:20:40;;;;;;;130.27;60.43;;;3.60;99.90;;;;;;5066418;28;20025;-79
2021/01/21 06:23:14;;;;;;;151.97;66.27;;;3.60;99.90;;;;;;5070611;28;20024;-79
2021/01/21 06:25:41;;;;;;;145.70;66.67;;;3.60;99.90;;;;;;5071248;28;20040;-78
2021/01/21 06:28:10;;;;;;;138.43;64.90;;;3.60;99.90;;;;;;5061440;28;20044;-79
2021/01/21 06:30:36;;;;;;;145.30;63.90;;;3.60;99.90;;;;;;5034628;28;20120;-78
2021/01/21 06:33:03;;;;;;;137.10;63.00;;;3.60;99.90;;;;;;5034515;28;20064;-78
2021/01/21 06:35:35;;;;;;;133.80;62.13;;;3.70;99.90;;;;;;5067034;28;20363;-79
2021/01/21 06:38:10;;;;;;;132.57;63.22;;;3.70;99.90;;;;;;5068807;28;20176;-79
2021/01/21 06:40:40;;;;;;;141.10;61.27;;;3.70;99.90;;;;;;5071217;28;20016;-78
2021/01/21 06:43:12;;;;;;;125.67;59.00;;;3.70;99.90;;;;;;5072484;28;20028;-79
2021/01/21 06:45:38;;;;;;;125.83;58.20;;;3.70;99.90;;;;;;5072536;28;20082;-79
2021/01/21 06:48:05;;;;;;;126.33;60.17;;;3.60;99.90;;;;;;5071158;28;20107;-79
2021/01/21 06:50:32;;;;;;;131.03;60.60;;;3.60;99.90;;;;;;5071792;28;20033;-79
2021/01/21 06:53:03;;;;;;;139.53;65.73;;;3.60;99.90;;;;;;5070907;28;20478;-79
2021/01/21 06:55:29;;;;;;;139.47;63.53;;;3.60;99.90;;;;;;5072410;28;20428;-79
2021/01/21 06:57:55;;;;;;;130.33;62.53;;;3.70;99.90;;;;;;5069352;28;20033;-79
2021/01/21 07:00:41;;;;;;;135.07;63.00;;;3.70;99.90;;;;;;5072277;28;20077;-79
2021/01/21 07:03:22;;;;;;;132.40;61.33;;;3.70;99.90;;;;;;5072353;28;20025;-78
2021/01/21 07:05:56;;;;;;;122.97;59.13;;;3.70;99.90;;;;;;5052527;28;20628;-79
2021/01/21 07:08:22;;;;;;;135.57;61.83;;;3.70;99.90;;;;;;5052127;28;20074;-79
2021/01/21 07:10:49;;;;;;;156.67;68.00;;;3.70;99.90;;;;;;5035725;28;20029;-79
2021/01/21 07:13:19;;;;;;;139.93;62.33;;;3.70;99.90;;;;;;5038844;28;20512;-79
2021/01/21 07:15:57;;;;;;;149.10;65.47;;;3.70;99.90;;;;;;5037708;28;20064;-79
2021/01/21 07:18:28;;;;;;;149.63;67.30;;;3.70;99.90;;;;;;5045736;28;20043;-79
2021/01/21 07:21:00;;;;;;;149.90;68.73;;;3.80;99.90;;;;;;5054459;28;20021;-79
2021/01/21 07:23:48;;;;;;;141.68;66.00;;;3.80;99.90;;;;;;5037834;28;20029;-79
2021/01/21 07:26:17;;;;;;;134.63;65.37;;;3.80;99.90;;;;;;5073712;28;20050;-79
2021/01/21 07:29:00;;;;;;;151.60;64.60;;;3.80;99.90;;;;;;5075676;28;20032;-79
2021/01/21 07:31:26;;;;;;;142.17;64.47;;;3.70;99.90;;;;;;5074195;28;20032;-79
2021/01/21 07:34:24;;;;;;;143.83;66.37;;;3.80;99.90;;;;;;5074176;28;20534;-78
2021/01/21 07:37:11;;;;;;;144.93;67.63;;;3.80;99.90;;;;;;5073977;28;20402;-79
2021/01/21 07:39:46;;;;;;;137.83;66.07;;;3.80;99.90;;;;;;5074813;28;20036;-79
2021/01/21 07:42:12;;;;;;;152.40;67.40;;;3.80;99.90;;;;;;5052287;28;20041;-78
2021/01/21 07:44:51;;;;;;;154.00;70.47;;;3.80;99.90;;;;;;5050770;28;20087;-79
2021/01/21 07:47:30;;;;;;;159.27;74.87;;;3.80;99.90;;;;;;5058003;28;20035;-78
2021/01/21 07:50:24;;;;;;;147.27;70.90;;;3.80;99.90;;;;;;5066755;28;20456;-79
2021/01/21 07:52:55;;;;;;;158.37;77.07;;;3.80;99.90;;;;;;5068248;28;20027;-79
2021/01/21 07:55:30;;;;;;;166.20;77.83;;;3.80;99.90;;;;;;5068118;28;20486;-79
2021/01/21 07:58:27;;;;;;;164.03;77.73;;;3.70;99.90;;;;;;5069055;28;20051;-79
2021/01/21 08:01:13;;;;;;;157.73;73.03;;;3.70;99.90;;;;;;5059968;28;20029;-81
2021/01/21 08:03:41;;;;;;;159.73;73.67;;;3.80;99.90;;;;;;5054510;28;20052;-80
2021/01/21 08:06:18;;;;;;;155.90;74.93;;;3.80;99.90;;;;;;5058208;28;20060;-80
2021/01/21 08:08:46;;;;;;;153.83;72.40;;;3.90;99.90;;;;;;5047973;28;20029;-81
2021/01/21 08:11:15;;;;;;;151.03;70.47;;;3.90;99.90;;;;;;5048567;28;20495;-80
2021/01/21 08:13:42;;;;;;;150.30;70.30;;;3.90;99.90;;;;;;5057962;28;20043;-81
2021/01/21 08:16:15;;;;;;;153.10;71.63;;;3.90;99.90;;;;;;5068032;28;20059;-81
2021/01/21 08:18:43;;;;;;;161.10;70.23;;;3.90;99.90;;;;;;5066161;28;20390;-81
2021/01/21 08:21:29;;;;;;;73.33;36.93;;;4.00;99.90;;;;;;5057247;28;20032;-80
2021/01/21 08:23:57;;;;;;;126.87;58.10;;;4.40;99.90;;;;;;5043284;28;20082;-79
2021/01/21 08:26:27;;;;;;;140.75;65.40;;;4.40;99.90;;;;;;5066638;28;20040;-78
2021/01/21 08:28:54;;;;;;;145.57;68.47;;;4.30;99.90;;;;;;5067288;28;20029;-79
2021/01/21 08:31:29;;;;;;;150.13;69.10;;;4.30;99.90;;;;;;5059217;28;20028;-79
2021/01/21 08:33:56;;;;;;;152.25;69.90;;;4.30;99.90;;;;;;5063913;28;20594;-79
2021/01/21 08:36:27;;;;;;;151.45;67.88;;;4.30;99.90;;;;;;5067679;28;20115;-78
2021/01/21 08:38:54;;;;;;;148.03;69.40;;;4.20;99.90;;;;;;5053975;28;20039;-79
2021/01/21 08:41:21;;;;;;;143.18;68.25;;;4.20;99.90;;;;;;5058850;28;20281;-79
2021/01/21 08:43:47;;;;;;;140.20;65.05;;;4.20;99.90;;;;;;5049705;28;20090;-79
2021/01/21 08:46:21;;;;;;;149.20;68.63;;;4.20;99.90;;;;;;5049383;28;20044;-79
2021/01/21 08:48:48;;;;;;;136.85;66.82;;;4.20;99.90;;;;;;5053042;28;20059;-79
2021/01/21 08:51:37;;;;;;;138.55;68.90;;;4.20;99.90;;;;;;5054111;28;20024;-79
2021/01/21 08:54:13;;;;;;;137.10;66.73;;;4.20;99.90;;;;;;5062317;28;20116;-79
2021/01/21 08:56:39;;;;;;;138.95;66.30;;;4.20;99.90;;;;;;5067511;28;20035;-80
2021/01/21 08:59:28;;;;;;;137.80;65.68;;;4.30;99.90;;;;;;5053109;28;20036;-79
2021/01/21 09:01:54;;;;;;;146.45;70.53;;;4.30;99.90;;;;;;5050463;28;20025;-79
2021/01/21 09:04:32;;;;;;;143.38;69.25;;;4.40;99.90;;;;;;5064731;28;20029;-80
2021/01/21 09:06:59;;;;;;;147.17;69.67;;;4.40;99.90;;;;;;5063357;28;20079;-79
2021/01/21 09:09:26;;;;;;;143.32;69.32;;;4.40;99.90;;;;;;5059572;28;20031;-79
2021/01/21 09:11:52;;;;;;;153.65;72.05;;;4.50;99.90;;;;;;5054919;28;20078;-78
2021/01/21 09:14:19;;;;;;;144.82;71.28;;;4.50;99.90;;;;;;5066877;28;20482;-79
2021/01/21 09:16:50;;;;;;;159.02;71.03;;;4.50;99.90;;;;;;5067451;28;20047;-79
2021/01/21 09:19:26;;;;;;;158.57;71.53;;;4.60;99.90;;;;;;5058522;28;20028;-81
2021/01/21 09:22:06;;;;;;;155.82;73.72;;;4.60;99.90;;;;;;5055255;28;20027;-80
2021/01/21 09:25:14;;;;;;;171.90;76.65;;;4.70;99.90;;;;;;5047359;28;20017;-80
2021/01/21 09:27:50;;;;;;;177.15;80.18;;;4.70;99.90;;;;;;5061181;28;20033;-80
2021/01/21 09:30:16;;;;;;;162.45;76.95;;;4.80;99.90;;;;;;5048693;28;20382;-81
2021/01/21 09:32:52;;;;;;;171.43;76.43;;;4.80;99.90;;;;;;5065248;28;20025;-81
2021/01/21 09:35:24;;;;;;;162.05;77.18;;;4.80;99.90;;;;;;5062208;28;20029;-81
2021/01/21 09:37:57;;;;;;;150.98;70.93;;;4.80;99.90;;;;;;5048271;28;20071;-80
2021/01/21 09:40:32;;;;;;;152.77;72.30;;;4.80;99.90;;;;;;5047173;28;20010;-80
2021/01/21 09:42:59;;;;;;;164.07;74.55;;;4.80;99.90;;;;;;5055804;28;20028;-81
2021/01/21 09:45:26;;;;;;;173.98;74.72;;;4.80;99.90;;;;;;5058014;28;20025;-80
2021/01/21 09:47:53;;;;;;;159.43;71.13;;;4.80;99.90;;;;;;5052827;28;20027;-80
2021/01/21 09:50:20;;;;;;;150.75;71.20;;;4.80;99.90;;;;;;5062161;28;20040;-80
2021/01/21 09:52:45;;;;;;;152.18;71.22;;;4.80;99.90;;;;;;5046129;28;20044;-79
2021/01/21 09:55:12;;;;;;;147.27;70.85;;;4.80;99.90;;;;;;5047393;28;20056;-81
2021/01/21 09:57:39;;;;;;;159.48;75.55;;;4.80;99.90;;;;;;5043798;28;20116;-81
2021/01/21 10:00:15;;;;;;;154.30;70.20;;;4.80;99.90;;;;;;5064073;28;20482;-80
2021/01/21 10:02:41;;;;;;;154.63;75.05;;;4.90;99.90;;;;;;5065470;28;20107;-80
2021/01/21 10:05:08;;;;;;;149.35;71.78;;;4.90;99.90;;;;;;5067477;28;20651;-81
2021/01/21 10:07:34;;;;;;;154.95;71.82;;;4.90;99.90;;;;;;5065487;28;20501;-80
2021/01/21 10:10:00;;;;;;;161.98;74.78;;;5.00;99.90;;;;;;5067228;28;20025;-81
2021/01/21 10:12:25;;;;;;;153.63;72.40;;;5.00;99.90;;;;;;5065800;28;20111;-80
2021/01/21 10:14:51;;;;;;;160.50;73.10;;;5.00;99.90;;;;;;5066411;28;20029;-80
2021/01/21 10:17:17;;;;;;;153.82;74.25;;;5.00;99.90;;;;;;5065268;28;20028;-80
2021/01/21 10:19:45;;;;;;;154.45;71.38;;;5.00;99.90;;;;;;5064282;28;20012;-83
2021/01/21 10:22:11;;;;;;;162.35;73.40;;;5.00;99.90;;;;;;5065173;28;20025;-83
2021/01/21 10:24:37;;;;;;;162.52;77.53;;;5.00;99.90;;;;;;5060583;28;20013;-86
2021/01/21 10:27:03;;;;;;;164.93;74.75;;;5.00;99.90;;;;;;5058005;28;20073;-81
2021/01/21 10:29:29;;;;;;;158.00;75.20;;;5.10;99.90;;;;;;5068213;28;20017;-82
2021/01/21 10:31:54;;;;;;;145.90;72.82;;;5.10;99.90;;;;;;5061765;28;20179;-83
2021/01/21 10:34:20;;;;;;;149.10;70.93;;;5.10;99.90;;;;;;5057565;28;20032;-84
2021/01/21 10:36:46;;;;;;;155.88;72.03;;;5.10;99.90;;;;;;5065048;28;20115;-85
2021/01/21 10:39:14;;;;;;;150.93;70.97;;;5.10;99.90;;;;;;5066371;28;20028;-84
2021/01/21 10:41:40;;;;;;;145.70;70.78;;;5.10;99.90;;;;;;5056561;28;20352;-84
2021/01/21 10:44:08;;;;;;;146.77;69.70;;;5.10;99.90;;;;;;5062847;28;20021;-83
2021/01/21 10:46:34;;;;;;;146.35;70.80;;;5.10;99.90;;;;;;5052446;28;20633;-84
2021/01/21 10:49:10;;;;;;;146.57;70.28;;;5.10;99.90;;;;;;5065928;28;20021;-85
2021/01/21 10:51:36;;;;;;;139.95;68.47;;;5.10;99.90;;;;;;5070095;28;20024;-85
2021/01/21 10:54:02;;;;;;;149.18;70.78;;;5.10;99.90;;;;;;5072689;28;20091;-84
2021/01/21 10:56:29;;;;;;;142.35;69.80;;;5.10;99.90;;;;;;5067007;28;20028;-85
2021/01/21 10:58:55;;;;;;;140.55;69.38;;;5.10;99.90;;;;;;5060548;28;20024;-85
2021/01/21 11:01:20;;;;;;;144.40;70.03;;;5.10;99.90;;;;;;5061750;28;20040;-78
2021/01/21 11:03:46;;;;;;;146.38;71.07;;;5.00;99.90;;;;;;5060460;28;20021;-78
2021/01/21 11:06:12;;;;;;;145.73;70.75;;;5.00;99.90;;;;;;5053103;28;20831;-78
2021/01/21 11:08:37;;;;;;;157.57;71.35;;;5.00;99.90;;;;;;5061836;28;20569;-78
2021/01/21 11:11:06;;;;;;;145.40;67.85;;;5.00;99.90;;;;;;5053532;28;20698;-79
2021/01/21 11:13:38;;;;;;;144.90;68.22;;;5.00;99.90;;;;;;5060324;28;20029;-78
2021/01/21 11:16:06;;;;;;;151.15;73.03;;;5.10;99.90;;;;;;5053379;28;20027;-85
2021/01/21 11:18:32;;;;;;;152.75;70.65;;;5.10;99.90;;;;;;5054334;28;20017;-84
2021/01/21 11:20:58;;;;;;;138.20;66.82;;;5.10;99.90;;;;;;5054900;28;20024;-84
2021/01/21 11:23:23;;;;;;;145.35;68.10;;;5.20;99.90;;;;;;5056617;28;20435;-85
2021/01/21 11:25:50;;;;;;;143.57;67.68;;;5.20;99.90;;;;;;5059918;28;20021;-85
2021/01/21 11:28:20;;;;;;;141.45;69.85;;;5.20;99.90;;;;;;5049934;28;20044;-85
2021/01/21 11:30:49;;;;;;;158.98;75.03;;;5.10;99.90;;;;;;5062111;28;20021;-84
2021/01/21 11:33:15;;;;;;;148.10;74.03;;;5.10;99.90;;;;;;5066636;28;20032;-83
2021/01/21 11:35:41;;;;;;;144.70;69.30;;;5.10;99.90;;;;;;5064864;28;20024;-84
2021/01/21 11:38:07;;;;;;;141.15;69.85;;;5.10;99.90;;;;;;5057833;28;20402;-84
2021/01/21 11:40:33;;;;;;;144.75;69.90;;;5.20;99.90;;;;;;5062162;28;20135;-84
2021/01/21 11:42:58;;;;;;;142.13;68.40;;;5.20;99.90;;;;;;5072318;28;20070;-83
2021/01/21 11:45:24;;;;;;;148.82;70.15;;;5.20;99.90;;;;;;5070027;28;20473;-83
2021/01/21 11:47:52;;;;;;;138.65;67.32;;;5.20;99.90;;;;;;5068076;28;20422;-83
2021/01/21 11:50:18;;;;;;;138.48;66.68;;;5.20;99.90;;;;;;5069149;28;20447;-82
2021/01/21 11:52:55;;;;;;;133.75;68.35;;;5.30;99.90;;;;;;5061246;28;20108;-83
2021/01/21 11:55:23;;;;;;;140.00;70.53;;;5.30;99.90;;;;;;5073727;28;20032;-83
2021/01/21 11:57:48;;;;;;;139.50;69.88;;;5.20;99.90;;;;;;5074471;28;20035;-84
2021/01/21 12:00:14;;;;;;;141.60;71.30;;;5.30;99.90;;;;;;5071985;28;20574;-83
2021/01/21 12:02:41;;;;;;;148.45;68.82;;;5.30;99.90;;;;;;5058459;28;20110;-83
2021/01/21 12:05:08;;;;;;;148.32;70.03;;;5.30;99.90;;;;;;5063973;28;20105;-78
2021/01/21 12:07:34;;;;;;;145.15;70.25;;;5.30;99.90;;;;;;5071038;28;20025;-78
2021/01/21 12:10:00;;;;;;;146.20;70.25;;;5.30;99.90;;;;;;5068792;28;20029;-79
2021/01/21 12:12:25;;;;;;;148.00;72.60;;;5.20;99.90;;;;;;5072465;28;20027;-79
2021/01/21 12:14:51;;;;;;;159.40;73.15;;;5.20;99.90;;;;;;5071765;28;20467;-79
2021/01/21 12:17:17;;;;;;;147.05;70.43;;;5.20;99.90;;;;;;5051595;28;20067;-79
2021/01/21 12:19:44;;;;;;;142.23;65.30;;;5.20;99.90;;;;;;5050613;28;20387;-81
2021/01/21 12:22:10;;;;;;;137.75;66.07;;;5.20;99.90;;;;;;5052243;28;20031;-79
2021/01/21 12:24:36;;;;;;;139.48;66.45;;;5.20;99.90;;;;;;5070542;28;20024;-79
2021/01/21 12:27:01;;;;;;;139.90;68.68;;;5.20;99.90;;;;;;5072930;28;20020;-78
2021/01/21 12:29:27;;;;;;;135.40;65.70;;;5.20;99.90;;;;;;5072365;28;20064;-78
2021/01/21 12:31:53;;;;;;;136.38;66.00;;;5.20;99.90;;;;;;5064294;28;20048;-78
2021/01/21 12:34:18;;;;;;;142.63;66.85;;;5.30;99.90;;;;;;5062422;28;20029;-77
2021/01/21 12:36:44;;;;;;;133.90;65.85;;;5.30;99.90;;;;;;5051498;28;20092;-77